Time;durP1;ratioP1;P1;durP2;ratioP2;P2;SDS_P1;SDS_P2;PMS_P1;PMS_P2;Temp;Humidity;BMP_temperature;BMP_pressure;BME280_temperature;BME280_humidity;BME280_pressure;Samples;Min_cycle;Max_cycle;Signal;HPM_P1;HPM_P2
2021/04/27 00:00:14;;;;;;;9.00;5.97;;;;;;;15.70;49.88;94817.47;5070687;28;20441;-71
2021/04/27 00:02:40;;;;;;;10.77;5.60;;;;;;;15.76;50.75;94805.75;5070716;28;20442;-74
2021/04/27 00:05:10;;;;;;;8.77;6.03;;;;;;;15.79;49.94;94810.44;5070560;28;20829;-71
2021/04/27 00:07:37;;;;;;;7.97;6.47;;;;;;;15.79;50.59;94821.00;5069938;28;20446;-72
2021/04/27 00:10:09;;;;;;;9.80;6.70;;;;;;;15.83;49.93;94812.22;5070260;28;21254;-70
2021/04/27 00:12:36;;;;;;;10.27;6.97;;;;;;;15.60;50.66;94812.34;5070928;28;20948;-70
2021/04/27 00:15:08;;;;;;;9.63;7.23;;;;;;;15.61;50.99;94813.91;5070812;28;20442;-74
2021/04/27 00:17:36;;;;;;;10.03;7.37;;;;;;;15.53;50.91;94817.22;5070029;28;20508;-74
2021/04/27 00:20:04;;;;;;;11.33;7.77;;;;;;;15.63;51.20;94819.69;5070197;28;20446;-74
2021/04/27 00:22:31;;;;;;;8.73;7.13;;;;;;;15.66;50.70;94805.91;5071138;28;20534;-74
2021/04/27 00:24:58;;;;;;;9.57;6.47;;;;;;;15.63;50.42;94807.28;5070729;28;20430;-70
2021/04/27 00:27:25;;;;;;;8.97;6.17;;;;;;;15.44;50.92;94776.69;5070567;28;20438;-73
2021/04/27 00:29:51;;;;;;;11.13;6.17;;;;;;;15.54;50.98;94808.22;5070348;28;20480;-75
2021/04/27 00:32:18;;;;;;;7.97;5.93;;;;;;;15.54;51.52;94808.22;5070209;28;20887;-74
2021/04/27 00:34:44;;;;;;;7.67;5.47;;;;;;;15.51;50.98;94814.84;5070728;28;20976;-74
2021/04/27 00:37:11;;;;;;;6.43;5.20;;;;;;;15.55;50.65;94800.00;5070003;28;20925;-74
2021/04/27 00:39:37;;;;;;;7.00;5.73;;;;;;;15.43;50.90;94806.78;5069745;28;20442;-73
2021/04/27 00:42:04;;;;;;;10.80;5.67;;;;;;;15.55;50.75;94804.47;5069532;28;20436;-70
2021/04/27 00:44:30;;;;;;;9.13;6.10;;;;;;;15.64;50.67;94803.53;5068528;28;20507;-75
2021/04/27 00:46:57;;;;;;;8.27;6.13;;;;;;;15.54;51.14;94802.94;5069313;28;20450;-73
2021/04/27 00:49:23;;;;;;;8.60;5.50;;;;;;;15.56;51.03;94801.59;5067715;28;20434;-72
2021/04/27 00:51:50;;;;;;;9.07;5.57;;;;;;;15.43;51.16;94790.94;5069404;28;20529;-73
2021/04/27 00:54:17;;;;;;;5.40;4.60;;;;;;;15.31;51.08;94790.59;5069771;28;20441;-71
2021/04/27 00:56:43;;;;;;;8.40;4.90;;;;;;;15.34;50.50;94787.38;5069089;28;20478;-72
2021/04/27 00:59:10;;;;;;;6.27;4.60;;;;;;;15.55;50.88;94786.00;5075755;28;20438;-70
2021/04/27 01:01:36;;;;;;;9.27;5.40;;;;;;;15.51;50.20;94777.09;5073704;28;20434;-73
2021/04/27 01:04:03;;;;;;;8.30;5.03;;;;;;;15.49;51.04;94773.97;5069428;28;20456;-72
2021/04/27 01:06:30;;;;;;;8.90;5.20;;;;;;;15.07;51.20;94778.25;5068321;28;20828;-75
2021/04/27 01:09:04;;;;;;;7.77;4.87;;;;;;;15.07;51.15;94766.91;5069160;28;20495;-76
2021/04/27 01:11:44;;;;;;;8.20;4.90;;;;;;;15.12;51.36;94786.09;5069520;28;20493;-73
2021/04/27 01:14:46;;;;;;;7.77;5.07;;;;;;;15.02;51.43;94780.16;5068310;28;20483;-73
2021/04/27 01:17:19;;;;;;;6.47;4.60;;;;;;;14.98;51.46;94774.66;5068141;28;20571;-76
2021/04/27 01:20:16;;;;;;;8.97;4.83;;;;;;;14.99;51.28;94789.44;5069818;28;20460;-74
2021/04/27 01:23:17;;;;;;;7.67;4.53;;;;;;;14.91;51.09;94795.34;5063856;28;20457;-73
2021/04/27 01:26:05;;;;;;;7.13;4.40;;;;;;;14.90;51.43;94796.44;5069703;28;20944;-72
2021/04/27 01:28:40;;;;;;;7.93;4.53;;;;;;;14.81;51.47;94787.59;5069067;28;20882;-72
2021/04/27 01:31:07;;;;;;;8.70;4.37;;;;;;;15.01;51.05;94783.88;5067585;28;20483;-72
2021/04/27 01:33:35;;;;;;;8.20;4.60;;;;;;;14.99;51.11;94778.91;5068769;28;20471;-73
2021/04/27 01:36:03;;;;;;;7.60;4.53;;;;;;;15.07;50.68;94772.97;5067452;28;20505;-75
2021/04/27 01:38:36;;;;;;;10.90;4.67;;;;;;;15.19;50.54;94760.13;5067318;28;20525;-73
2021/04/27 01:41:03;;;;;;;6.33;4.70;;;;;;;15.22;50.75;94762.19;5067726;28;20465;-74
2021/04/27 01:43:31;;;;;;;9.10;5.00;;;;;;;15.05;50.65;94763.78;5067698;28;21036;-71
2021/04/27 01:46:04;;;;;;;7.90;4.70;;;;;;;14.98;51.30;94771.28;5069252;28;20525;-75
2021/04/27 01:48:34;;;;;;;11.70;5.50;;;;;;;15.07;50.74;94765.03;5067676;28;20442;-72
2021/04/27 01:51:04;;;;;;;7.27;4.80;;;;;;;15.11;51.17;94763.41;5067782;28;20448;-73
2021/04/27 01:53:50;;;;;;;7.57;5.20;;;;;;;15.08;51.71;94764.00;5069274;28;20437;-73
2021/04/27 01:56:17;;;;;;;11.33;5.50;;;;;;;14.98;51.83;94764.13;5068166;28;20572;-71
2021/04/27 01:58:43;;;;;;;9.23;5.03;;;;;;;15.15;51.51;94755.69;5069057;28;20503;-70
2021/04/27 02:01:10;;;;;;;10.57;5.30;;;;;;;15.14;52.04;94754.91;5070708;28;20503;-70
2021/04/27 02:03:42;;;;;;;7.40;5.20;;;;;;;15.05;52.00;94759.25;5071234;28;20915;-71
2021/04/27 02:06:15;;;;;;;11.60;5.77;;;;;;;15.11;51.33;94762.63;5073141;28;20449;-73
2021/04/27 02:09:01;;;;;;;8.07;5.83;;;;;;;15.11;51.20;94763.41;5071235;28;20456;-74
2021/04/27 02:11:33;;;;;;;9.83;6.23;;;;;;;15.10;50.73;94774.25;5071477;28;20484;-71
2021/04/27 02:14:02;;;;;;;8.67;5.43;;;;;;;14.84;50.98;94773.81;5073002;28;20430;-73
2021/04/27 02:16:37;;;;;;;10.97;5.80;;;;;;;15.17;50.75;94772.81;5071363;28;20520;-71
2021/04/27 02:19:06;;;;;;;8.03;5.53;;;;;;;15.29;50.75;94768.97;5072460;28;20484;-74
2021/04/27 02:21:34;;;;;;;9.70;5.47;;;;;;;15.20;51.47;94782.81;5071841;28;20441;-73
2021/04/27 02:24:22;;;;;;;8.03;5.50;;;;;;;15.25;51.86;94774.81;5078437;28;20441;-73
2021/04/27 02:26:52;;;;;;;8.00;5.40;;;;;;;15.30;50.99;94775.81;5071266;28;20449;-73
2021/04/27 02:29:28;;;;;;;9.77;5.63;;;;;;;15.33;51.53;94760.16;5071080;28;20480;-74
2021/04/27 02:31:56;;;;;;;8.80;6.43;;;;;;;15.27;51.96;94761.34;5070882;28;20450;-74
2021/04/27 02:34:25;;;;;;;13.60;6.40;;;;;;;15.23;52.51;94750.56;5070996;28;21031;-74
2021/04/27 02:36:55;;;;;;;10.40;6.10;;;;;;;15.22;53.54;94746.34;5070645;28;21159;-73
2021/04/27 02:39:26;;;;;;;9.77;6.63;;;;;;;15.07;54.60;94745.81;5070680;28;20868;-74
2021/04/27 02:41:53;;;;;;;11.00;6.80;;;;;;;14.91;56.28;94739.94;5070942;28;20442;-70
2021/04/27 02:44:39;;;;;;;10.83;6.03;;;;;;;14.50;56.86;94724.97;5072123;28;20449;-73
2021/04/27 02:47:06;;;;;;;9.83;6.60;;;;;;;14.71;56.67;94731.53;5070780;28;20525;-72
2021/04/27 02:49:33;;;;;;;9.87;6.93;;;;;;;14.79;56.49;94728.25;5070566;28;20975;-73
2021/04/27 02:52:05;;;;;;;7.77;5.63;;;;;;;14.57;57.48;94736.72;5070498;28;20499;-76
2021/04/27 02:54:42;;;;;;;8.63;6.40;;;;;;;14.65;57.83;94749.25;5071057;28;20450;-74
2021/04/27 02:57:11;;;;;;;9.37;6.37;;;;;;;14.66;57.08;94734.22;5070791;28;20482;-73
2021/04/27 02:59:41;;;;;;;10.83;6.27;;;;;;;14.63;58.44;94740.09;5070657;28;20815;-72
2021/04/27 03:02:08;;;;;;;9.17;5.70;;;;;;;14.52;57.60;94736.00;5069820;28;20478;-72
2021/04/27 03:04:35;;;;;;;6.43;5.63;;;;;;;14.42;57.97;94736.91;5070502;28;20792;-71
2021/04/27 03:07:24;;;;;;;11.00;6.50;;;;;;;14.29;58.85;94745.50;5070513;28;20457;-72
2021/04/27 03:09:51;;;;;;;10.77;6.50;;;;;;;14.03;59.50;94752.09;5071381;28;20541;-75
2021/04/27 03:12:17;;;;;;;8.60;6.40;;;;;;;14.07;59.42;94753.09;5070840;28;20833;-74
2021/04/27 03:14:44;;;;;;;11.10;7.17;;;;;;;14.35;59.88;94764.69;5070559;28;20529;-73
2021/04/27 03:17:13;;;;;;;10.23;7.23;;;;;;;14.35;59.54;94768.09;5069641;28;20676;-73
2021/04/27 03:19:52;;;;;;;12.00;6.90;;;;;;;14.47;59.67;94763.22;5069947;28;20442;-74
2021/04/27 03:22:25;;;;;;;12.67;7.50;;;;;;;14.53;59.19;94743.63;5070202;28;20948;-75
2021/04/27 03:24:52;;;;;;;14.87;11.17;;;;;;;14.69;58.88;94766.09;5071506;28;20456;-72
2021/04/27 03:27:18;;;;;;;30.87;24.60;;;;;;;14.65;59.25;94770.34;5070910;28;20944;-73
2021/04/27 03:29:47;;;;;;;29.67;23.90;;;;;;;14.66;58.90;94766.66;5071182;28;20430;-73
2021/04/27 03:32:14;;;;;;;22.03;19.47;;;;;;;14.61;59.57;94753.56;5069641;28;20442;-71
2021/04/27 03:34:41;;;;;;;21.73;19.23;;;;;;;14.55;59.88;94754.69;5071262;28;20959;-71
2021/04/27 03:37:09;;;;;;;24.73;16.90;;;;;;;14.55;59.77;94754.69;5069024;28;20571;-70
2021/04/27 03:39:36;;;;;;;17.10;11.53;;;;;;;14.43;59.95;94750.88;5069815;28;20473;-72
2021/04/27 03:42:05;;;;;;;13.70;8.03;;;;;;;14.36;60.62;94756.47;5069370;28;20507;-74
2021/04/27 03:44:34;;;;;;;11.90;8.00;;;;;;;14.36;60.57;94756.47;5071121;28;20551;-73
2021/04/27 03:47:01;;;;;;;11.60;7.47;;;;;;;14.32;60.90;94754.72;5069877;28;20470;-71
2021/04/27 03:49:28;;;;;;;12.20;7.43;;;;;;;14.16;61.29;94754.03;5073780;28;20442;-75
2021/04/27 03:51:56;;;;;;;11.63;7.40;;;;;;;14.14;61.53;94745.66;5069268;28;21337;-75
2021/04/27 03:54:23;;;;;;;10.00;7.70;;;;;;;14.08;61.58;94744.94;5069804;28;20438;-74
2021/04/27 03:56:50;;;;;;;13.93;7.93;;;;;;;14.13;61.51;94758.03;5070339;28;20932;-75
2021/04/27 03:59:21;;;;;;;12.40;8.90;;;;;;;14.17;61.72;94760.91;5070737;28;20477;-73
2021/04/27 04:01:48;;;;;;;11.20;8.17;;;;;;;14.02;62.16;94761.06;5068733;28;20478;-71
2021/04/27 04:04:14;;;;;;;11.87;7.63;;;;;;;14.05;62.14;94766.56;5060024;28;20441;-70
2021/04/27 04:07:01;;;;;;;11.67;7.50;;;;;;;14.07;61.92;94779.44;5060420;28;20491;-70
2021/04/27 04:09:46;;;;;;;10.80;7.50;;;;;;;13.61;62.71;94788.84;5053057;28;20524;-72
2021/04/27 04:12:32;;;;;;;10.97;8.37;;;;;;;13.83;62.27;94799.72;5048637;28;20491;-71
2021/04/27 04:15:01;;;;;;;10.77;8.20;;;;;;;13.97;61.98;94800.63;5049002;28;20441;-70
2021/04/27 04:17:31;;;;;;;13.23;8.50;;;;;;;14.10;61.24;94802.63;5048095;28;20489;-72
2021/04/27 04:19:57;;;;;;;11.63;8.63;;;;;;;14.09;61.82;94798.38;5048553;28;20447;-74
2021/04/27 04:22:24;;;;;;;10.37;8.53;;;;;;;14.21;61.44;94786.41;5065669;28;20438;-72
2021/04/27 04:24:58;;;;;;;12.57;9.30;;;;;;;14.19;61.38;94772.75;5048931;28;20454;-74
2021/04/27 04:27:25;;;;;;;13.60;9.13;;;;;;;14.34;61.53;94790.28;5049039;28;20543;-72
2021/04/27 04:29:58;;;;;;;10.03;8.27;;;;;;;14.37;60.49;94796.81;5050101;28;20526;-74
2021/04/27 04:32:39;;;;;;;12.77;8.27;;;;;;;14.36;60.22;94785.47;5050444;28;20890;-71
2021/04/27 04:35:27;;;;;;;13.80;9.33;;;;;;;14.45;60.17;94764.56;5050470;28;20441;-73
2021/04/27 04:38:20;;;;;;;12.50;8.63;;;;;;;14.53;60.92;94754.19;5050083;28;20609;-73
2021/04/27 04:41:09;;;;;;;13.33;8.70;;;;;;;14.60;59.96;94733.50;5050404;28;20438;-73
2021/04/27 04:43:55;;;;;;;11.53;8.03;;;;;;;14.40;60.11;94764.63;5050184;28;20824;-73
2021/04/27 04:46:40;;;;;;;14.67;8.10;;;;;;;14.19;60.48;94766.69;5061692;28;21095;-73
2021/04/27 04:49:26;;;;;;;11.67;8.37;;;;;;;13.97;61.52;94763.75;5070403;28;20822;-74
2021/04/27 04:52:16;;;;;;;11.70;8.70;;;;;;;14.24;60.36;94769.25;5070508;28;20422;-67
2021/04/27 04:55:10;;;;;;;15.40;8.47;;;;;;;14.38;59.97;94751.72;5070763;28;20454;-73
2021/04/27 04:57:51;;;;;;;11.90;8.37;;;;;;;14.40;59.81;94749.59;5069747;28;20485;-70
2021/04/27 05:00:23;;;;;;;13.93;8.60;;;;;;;14.58;59.46;94748.84;5069311;28;20487;-72
2021/04/27 05:03:12;;;;;;;25.93;19.80;;;;;;;14.64;59.47;94745.06;5070247;28;20971;-72
2021/04/27 05:06:06;;;;;;;21.77;16.30;;;;;;;14.55;59.50;94732.78;5071176;28;20478;-70
2021/04/27 05:08:53;;;;;;;10.93;8.93;;;;;;;14.40;59.48;94746.94;5070988;28;20438;-71
2021/04/27 05:11:41;;;;;;;12.20;9.33;;;;;;;14.65;58.66;94764.31;5070194;28;20572;-71
2021/04/27 05:14:33;;;;;;;11.30;8.63;;;;;;;14.84;58.82;94763.25;5060363;28;20540;-72
2021/04/27 05:17:03;;;;;;;12.07;8.67;;;;;;;14.76;58.95;94752.56;5067955;28;20478;-71
2021/04/27 05:19:31;;;;;;;8.77;7.43;;;;;;;14.98;56.82;94761.47;5069205;28;20438;-70
2021/04/27 05:21:59;;;;;;;14.37;8.10;;;;;;;14.73;57.47;94761.03;5068322;28;20442;-71
2021/04/27 05:24:27;;;;;;;10.03;8.27;;;;;;;14.93;57.03;94751.00;5068029;28;20804;-75
2021/04/27 05:26:58;;;;;;;9.67;7.90;;;;;;;15.08;57.08;94731.53;5067931;28;20442;-72
2021/04/27 05:29:25;;;;;;;61.57;49.90;;;;;;;15.04;58.37;94710.22;5067701;28;20908;-74
2021/04/27 05:31:52;;;;;;;36.17;29.87;;;;;;;14.96;57.47;94713.47;5069492;28;20777;-73
2021/04/27 05:34:19;;;;;;;12.73;8.50;;;;;;;14.92;56.81;94717.78;5068650;28;20446;-71
2021/04/27 05:36:47;;;;;;;10.23;7.30;;;;;;;15.10;56.30;94719.63;5066423;28;20480;-71
2021/04/27 05:39:13;;;;;;;14.20;8.03;;;;;;;15.07;55.75;94725.47;5066251;28;20450;-72
2021/04/27 05:41:41;;;;;;;9.50;7.77;;;;;;;15.12;55.80;94711.41;5066114;28;20423;-72
2021/04/27 05:44:08;;;;;;;12.50;6.83;;;;;;;15.23;56.03;94710.19;5067408;28;20429;-73
2021/04/27 05:46:37;;;;;;;9.60;7.57;;;;;;;15.17;55.97;94703.41;5067360;28;20521;-72
2021/04/27 05:49:04;;;;;;;9.10;6.67;;;;;;;15.33;55.39;94717.94;5069087;28;20807;-73
2021/04/27 05:51:31;;;;;;;13.40;6.93;;;;;;;15.49;55.09;94710.59;5069128;28;20446;-71
2021/04/27 05:53:57;;;;;;;9.93;7.03;;;;;;;15.65;55.76;94709.25;5068559;28;20501;-72
2021/04/27 05:56:24;;;;;;;10.07;6.77;;;;;;;15.77;54.05;94706.91;5069157;28;20430;-71
2021/04/27 05:58:50;;;;;;;11.03;7.10;;;;;;;15.82;53.98;94715.53;5068649;28;20460;-70
2021/04/27 06:01:18;;;;;;;10.03;6.73;;;;;;;15.76;53.84;94711.44;5069295;28;20440;-70
2021/04/27 06:03:44;;;;;;;13.03;7.20;;;;;;;15.54;53.01;94713.13;5068828;28;20438;-72
2021/04/27 06:06:10;;;;;;;8.67;6.10;;;;;;;15.56;52.94;94716.28;5068708;28;21284;-72
2021/04/27 06:08:37;;;;;;;9.87;7.10;;;;;;;15.75;53.53;94709.84;5068370;28;20442;-72
2021/04/27 06:11:06;;;;;;;12.63;7.40;;;;;;;15.70;54.14;94707.31;5067440;28;20561;-72
2021/04/27 06:13:33;;;;;;;8.40;6.93;;;;;;;15.55;54.02;94718.13;5068208;28;20423;-73
2021/04/27 06:16:00;;;;;;;9.13;6.90;;;;;;;15.74;52.96;94734.72;5068895;28;21031;-71
2021/04/27 06:18:27;;;;;;;8.33;6.47;;;;;;;15.70;52.81;94732.94;5067423;28;21019;-73
2021/04/27 06:20:53;;;;;;;10.00;7.10;;;;;;;15.70;52.94;94717.09;5069015;28;20973;-72
2021/04/27 06:23:20;;;;;;;10.77;6.60;;;;;;;15.72;53.26;94741.34;5068310;28;20493;-71
2021/04/27 06:25:46;;;;;;;10.03;5.90;;;;;;;15.64;52.17;94734.06;5068941;28;20442;-72
2021/04/27 06:28:15;;;;;;;10.07;6.50;;;;;;;15.75;52.99;94740.75;5068380;28;20430;-72
2021/04/27 06:30:43;;;;;;;10.97;7.07;;;;;;;15.83;52.61;94732.19;5068831;28;20446;-72
2021/04/27 06:33:11;;;;;;;9.00;6.47;;;;;;;16.04;52.44;94730.72;5068280;28;20442;-69
2021/04/27 06:35:39;;;;;;;10.40;6.80;;;;;;;16.20;52.01;94732.78;5069791;28;20452;-71
2021/04/27 06:38:06;;;;;;;9.63;7.20;;;;;;;16.22;52.42;94751.03;5068841;28;20488;-69
2021/04/27 06:40:33;;;;;;;13.10;6.63;;;;;;;16.31;52.00;94738.69;5069823;28;20418;-73
2021/04/27 06:43:00;;;;;;;10.30;6.77;;;;;;;16.23;51.17;94747.28;5067750;28;21037;-73
2021/04/27 06:45:27;;;;;;;11.87;8.10;;;;;;;16.00;52.22;94751.66;5069565;28;20453;-70
2021/04/27 06:47:54;;;;;;;11.77;8.40;;;;;;;16.32;51.75;94750.81;5070033;28;20426;-71
2021/04/27 06:50:21;;;;;;;11.77;8.20;;;;;;;16.42;52.02;94755.91;5072659;28;21274;-70
2021/04/27 06:52:53;;;;;;;9.93;6.67;;;;;;;16.36;51.91;94741.22;5073155;28;20454;-70
2021/04/27 06:55:19;;;;;;;9.80;7.17;;;;;;;16.28;52.56;94755.13;5072804;28;20819;-70
2021/04/27 06:57:45;;;;;;;10.97;8.37;;;;;;;16.53;51.77;94736.13;5072394;28;20937;-70
2021/04/27 07:00:12;;;;;;;9.53;6.83;;;;;;;16.57;51.35;94739.75;5073103;28;20434;-72
2021/04/27 07:02:39;;;;;;;11.17;7.83;;;;;;;16.62;50.55;94739.66;5071946;28;20450;-72
2021/04/27 07:05:06;;;;;;;12.87;7.13;;;;;;;16.69;50.96;94734.75;5072887;28;20895;-70
2021/04/27 07:07:33;;;;;;;11.00;7.10;;;;;;;16.66;50.85;94730.03;5072810;28;20547;-71
2021/04/27 07:09:59;;;;;;;9.83;6.97;;;;;;;16.87;50.83;94723.25;5072340;28;20449;-72
2021/04/27 07:12:26;;;;;;;17.97;7.93;;;;;;;16.99;50.33;94728.78;5072171;28;20578;-70
2021/04/27 07:14:52;;;;;;;14.33;6.93;;;;;;;16.96;50.03;94724.09;5072427;28;20433;-72
2021/04/27 07:17:19;;;;;;;10.93;7.47;;;;;;;17.00;50.15;94719.78;5072194;28;20505;-70
2021/04/27 07:19:45;;;;;;;10.03;6.47;;;;;;;16.95;49.97;94714.59;5072360;28;20499;-69
2021/04/27 07:22:12;;;;;;;7.40;6.27;;;;;;;17.16;49.12;94728.94;5072025;28;20902;-73
2021/04/27 07:24:39;;;;;;;11.97;6.53;;;;;;;17.18;49.45;94731.28;5072708;28;20462;-72
2021/04/27 07:27:06;;;;;;;10.80;6.37;;;;;;;17.09;48.98;94723.28;5071890;28;20442;-71
2021/04/27 07:29:33;;;;;;;9.87;6.90;;;;;;;17.32;48.98;94731.25;5072428;28;20523;-72
2021/04/27 07:32:00;;;;;;;12.00;7.10;;;;;;;17.36;48.62;94735.63;5072244;28;20453;-72
2021/04/27 07:34:27;;;;;;;7.43;5.90;;;;;;;17.41;47.86;94737.38;5072132;28;20442;-71
2021/04/27 07:36:53;;;;;;;10.50;6.70;;;;;;;17.39;48.21;94723.66;5071972;28;20453;-71
2021/04/27 07:39:20;;;;;;;10.37;6.40;;;;;;;17.59;48.13;94725.84;5072298;28;20466;-70
2021/04/27 07:41:47;;;;;;;8.87;5.80;;;;;;;17.78;48.01;94721.09;5071797;28;20947;-72
2021/04/27 07:44:15;;;;;;;12.73;6.80;;;;;;;17.81;47.98;94733.78;5072298;28;20430;-72
2021/04/27 07:46:42;;;;;;;11.73;6.43;;;;;;;17.92;47.58;94740.34;5071545;28;20624;-70
2021/04/27 07:49:08;;;;;;;8.20;6.70;;;;;;;17.76;46.76;94731.22;5072026;28;20419;-70
2021/04/27 07:51:36;;;;;;;9.93;6.77;;;;;;;17.88;47.36;94718.22;5071737;28;20438;-71
2021/04/27 07:54:03;;;;;;;12.20;7.07;;;;;;;18.06;45.46;94714.53;5071450;28;20434;-72
2021/04/27 07:56:31;;;;;;;9.97;6.37;;;;;;;18.12;45.27;94702.69;5072561;28;20943;-70
2021/04/27 07:58:59;;;;;;;12.47;6.77;;;;;;;18.32;47.16;94691.53;5071320;28;20487;-70
2021/04/27 08:01:27;;;;;;;11.33;7.60;;;;;;;18.23;46.97;94688.06;5077538;28;20571;-72
2021/04/27 08:03:53;;;;;;;11.93;6.70;;;;;;;18.29;46.81;94697.47;5071256;28;20434;-70
2021/04/27 08:06:21;;;;;;;17.60;6.93;;;;;;;18.13;46.11;94685.72;5071323;28;20789;-69
2021/04/27 08:08:47;;;;;;;8.60;5.83;;;;;;;18.25;45.93;94691.19;5071167;28;20476;-71
2021/04/27 08:11:15;;;;;;;18.40;6.50;;;;;;;18.47;45.95;94687.69;5071161;28;20474;-71
2021/04/27 08:13:42;;;;;;;9.70;6.27;;;;;;;18.17;45.82;94699.94;5070908;28;20821;-73
2021/04/27 08:16:09;;;;;;;10.80;6.93;;;;;;;18.21;46.49;94700.84;5071741;28;20541;-72
2021/04/27 08:18:37;;;;;;;8.40;6.13;;;;;;;18.28;44.71;94693.25;5070676;28;20999;-72
2021/04/27 08:21:06;;;;;;;7.43;5.70;;;;;;;18.77;45.45;94695.56;5070418;28;20859;-73
2021/04/27 08:23:36;;;;;;;8.07;6.57;;;;;;;19.15;44.43;94693.88;5071214;28;20449;-71
2021/04/27 08:26:09;;;;;;;9.73;6.03;;;;;;;18.91;43.61;94674.97;5071513;28;20434;-71
2021/04/27 08:28:36;;;;;;;13.77;6.30;;;;;;;19.15;44.45;94679.78;5070841;28;20438;-73
2021/04/27 08:31:02;;;;;;;9.67;5.60;;;;;;;19.39;43.63;94688.09;5071693;28;20438;-70
2021/04/27 08:33:34;;;;;;;12.07;6.60;;;;;;;19.46;43.54;94695.56;5070998;28;21012;-71
2021/04/27 08:36:00;;;;;;;12.27;6.27;;;;;;;19.48;43.81;94682.75;5071210;28;20963;-71
2021/04/27 08:38:27;;;;;;;7.97;5.33;;;;;;;19.70;43.37;94682.53;5070493;28;20470;-70
2021/04/27 08:40:54;;;;;;;9.53;5.57;;;;;;;20.08;41.94;94668.19;5070713;28;20495;-72
2021/04/27 08:43:21;;;;;;;10.60;5.83;;;;;;;20.08;41.90;94678.03;5070474;28;20462;-73
2021/04/27 08:45:48;;;;;;;8.03;5.33;;;;;;;20.06;41.65;94669.59;5070774;28;20906;-70
2021/04/27 08:48:15;;;;;;;8.53;5.63;;;;;;;19.89;41.33;94670.44;5070359;28;20469;-72
2021/04/27 08:50:43;;;;;;;9.73;5.20;;;;;;;19.57;41.63;94668.34;5071089;28;20522;-71
2021/04/27 08:53:11;;;;;;;6.43;5.03;;;;;;;19.59;40.22;94654.75;5070480;28;20449;-72
2021/04/27 08:55:38;;;;;;;10.57;4.73;;;;;;;19.75;40.51;94651.25;5070846;28;20430;-70
2021/04/27 08:58:10;;;;;;;12.03;5.13;;;;;;;19.96;40.69;94646.78;5070320;28;20546;-72
2021/04/27 09:00:38;;;;;;;10.67;4.87;;;;;;;19.87;40.64;94645.28;5070528;28;21033;-71
2021/04/27 09:03:07;;;;;;;6.70;4.47;;;;;;;19.96;39.87;94649.44;5070729;28;20438;-70
2021/04/27 09:05:37;;;;;;;9.23;6.03;;;;;;;20.13;40.68;94643.25;5071092;28;20971;-73
2021/04/27 09:08:37;;;;;;;12.37;5.40;;;;;;;20.25;39.98;94639.97;5070081;28;20519;-69
2021/04/27 09:11:47;;;;;;;8.03;4.80;;;;;;;20.71;40.06;94653.91;5069930;28;20572;-69
2021/04/27 09:14:19;;;;;;;7.97;5.33;;;;;;;20.86;39.20;94661.31;5070679;28;20449;-71
2021/04/27 09:16:48;;;;;;;11.43;4.83;;;;;;;20.91;38.90;94669.09;5070549;28;20939;-70
2021/04/27 09:19:41;;;;;;;9.47;4.70;;;;;;;20.61;37.01;94669.47;5070099;28;20249;-72
2021/04/27 09:22:21;;;;;;;9.23;5.33;;;;;;;20.54;38.28;94664.69;5070015;28;20196;-70
2021/04/27 09:24:49;;;;;;;6.73;5.13;;;;;;;20.56;38.08;94667.81;5074285;28;20452;-71
2021/04/27 09:27:34;;;;;;;8.27;4.80;;;;;;;20.10;38.06;94647.38;5070034;28;20529;-71
2021/04/27 09:30:12;;;;;;;8.20;5.90;;;;;;;20.58;39.28;94654.97;5070027;28;20204;-69
2021/04/27 09:32:43;;;;;;;8.87;5.40;;;;;;;20.50;39.33;94645.13;5069877;28;20614;-70
2021/04/27 09:35:30;;;;;;;6.57;5.03;;;;;;;20.50;39.32;94641.69;5068788;28;20445;-72
2021/04/27 09:38:17;;;;;;;7.57;4.77;;;;;;;20.44;38.77;94638.44;5069645;28;20228;-70
2021/04/27 09:40:44;;;;;;;10.70;5.30;;;;;;;20.53;39.16;94635.72;5070376;28;20223;-71
2021/04/27 09:43:11;;;;;;;13.23;5.33;;;;;;;20.38;39.13;94626.44;5069461;28;20206;-72
2021/04/27 09:45:45;;;;;;;15.83;5.60;;;;;;;20.21;39.80;94629.19;5070124;28;20216;-70
2021/04/27 09:48:12;;;;;;;7.20;5.00;;;;;;;20.22;39.67;94629.97;5069593;28;20631;-71
2021/04/27 09:50:41;;;;;;;9.53;5.00;;;;;;;20.20;39.73;94608.97;5070120;28;20533;-71
2021/04/27 09:53:07;;;;;;;16.00;5.50;;;;;;;20.15;40.34;94598.50;5069833;28;20449;-69
2021/04/27 09:55:35;;;;;;;7.27;5.03;;;;;;;20.36;39.56;94577.28;5069834;28;20533;-72
2021/04/27 09:58:03;;;;;;;6.70;5.50;;;;;;;20.39;39.33;94574.75;5069073;28;20867;-71
2021/04/27 10:00:38;;;;;;;9.73;5.53;;;;;;;20.38;39.17;94567.88;5069907;28;20544;-71
2021/04/27 10:03:10;;;;;;;8.27;4.40;;;;;;;20.41;39.59;94564.56;5068414;28;20195;-69
2021/04/27 10:05:39;;;;;;;8.83;5.40;;;;;;;20.47;39.45;94568.59;5069712;28;20519;-69
2021/04/27 10:08:05;;;;;;;9.13;5.20;;;;;;;20.64;38.96;94573.00;5069104;28;20221;-72
2021/04/27 10:10:34;;;;;;;29.13;16.13;;;;;;;20.57;39.43;94578.06;5069551;28;21015;-70
2021/04/27 10:13:03;;;;;;;161.60;106.43;;;;;;;20.75;39.22;94593.56;5069071;28;20434;-72
2021/04/27 10:15:30;;;;;;;16.20;9.60;;;;;;;20.74;39.36;94600.03;5069845;28;20430;-71
2021/04/27 10:18:00;;;;;;;123.47;89.73;;;;;;;20.51;39.11;94611.31;5069389;28;20504;-70
2021/04/27 10:20:27;;;;;;;14.93;12.00;;;;;;;20.51;38.21;94620.06;5069500;28;20991;-71
2021/04/27 10:22:54;;;;;;;14.40;8.30;;;;;;;20.29;40.15;94609.72;5072174;28;20987;-69
2021/04/27 10:25:24;;;;;;;79.80;55.70;;;;;;;19.75;40.03;94610.59;5073259;28;20469;-72
2021/04/27 10:27:59;;;;;;;25.97;18.87;;;;;;;19.72;40.99;94622.66;5071811;28;21039;-71
2021/04/27 10:30:30;;;;;;;9.87;7.23;;;;;;;19.61;41.09;94618.00;5073771;28;20495;-74
2021/04/27 10:33:02;;;;;;;10.97;6.90;;;;;;;19.59;40.82;94625.50;5073535;28;20543;-71
2021/04/27 10:35:30;;;;;;;38.50;26.70;;;;;;;19.47;41.68;94625.41;5073575;28;20204;-72
2021/04/27 10:38:05;;;;;;;39.93;30.37;;;;;;;19.63;41.05;94629.09;5073030;28;20218;-72
2021/04/27 10:41:01;;;;;;;49.20;34.13;;;;;;;19.63;41.07;94626.44;5073549;28;20211;-74
2021/04/27 10:43:28;;;;;;;21.37;14.50;;;;;;;19.47;41.39;94636.03;5072773;28;20474;-73
2021/04/27 10:46:01;;;;;;;9.60;5.93;;;;;;;19.44;39.93;94626.81;5073798;28;20482;-73
2021/04/27 10:48:32;;;;;;;8.53;5.17;;;;;;;19.33;40.12;94614.16;5074017;28;20430;-71
2021/04/27 10:51:23;;;;;;;19.10;14.23;;;;;;;19.46;40.54;94607.88;5073919;28;20541;-72
2021/04/27 10:54:14;;;;;;;16.97;10.33;;;;;;;19.53;41.63;94618.78;5072777;28;20448;-72
2021/04/27 10:56:47;;;;;;;10.97;7.47;;;;;;;19.62;41.73;94606.25;5072230;28;20537;-72
2021/04/27 10:59:18;;;;;;;10.20;6.10;;;;;;;19.49;40.88;94623.22;5073188;28;20442;-72
2021/04/27 11:01:46;;;;;;;16.20;6.63;;;;;;;19.13;40.94;94627.00;5072839;28;20453;-75
2021/04/27 11:04:28;;;;;;;9.67;6.40;;;;;;;19.44;41.44;94623.34;5073164;28;21054;-70
2021/04/27 11:07:11;;;;;;;15.83;6.60;;;;;;;19.56;41.10;94623.50;5072749;28;20442;-73
2021/04/27 11:09:39;;;;;;;11.80;5.73;;;;;;;19.68;41.62;94615.63;5072612;28;20438;-74
2021/04/27 11:12:34;;;;;;;7.03;5.03;;;;;;;19.33;41.87;94616.81;5072482;28;20476;-75
2021/04/27 11:15:11;;;;;;;10.33;6.10;;;;;;;19.40;42.91;94598.50;5071858;28;20525;-72
2021/04/27 11:17:55;;;;;;;10.37;5.00;;;;;;;18.88;41.00;94597.81;5072584;28;20866;-73
2021/04/27 11:20:43;;;;;;;4.60;3.20;;;;;;;18.80;40.20;94585.31;5072698;28;20438;-74
2021/04/27 11:23:37;;;;;;;10.00;2.97;;;;;;;17.93;40.44;94596.13;5072435;28;20827;-73
2021/04/27 11:26:32;;;;;;;3.77;2.40;;;;;;;17.46;40.91;94605.59;5072512;28;20461;-72
2021/04/27 11:29:04;;;;;;;5.33;2.73;;;;;;;17.28;41.21;94601.28;5072418;28;20453;-71
2021/04/27 11:31:50;;;;;;;4.83;2.77;;;;;;;17.56;40.10;94583.38;5072353;28;20477;-73
2021/04/27 11:34:17;;;;;;;6.23;2.53;;;;;;;17.50;39.25;94585.38;5072049;28;20522;-74
2021/04/27 11:36:43;;;;;;;3.73;2.40;;;;;;;17.34;38.94;94570.94;5072018;28;20845;-72
2021/04/27 11:39:15;;;;;;;6.33;3.47;;;;;;;18.02;39.17;94562.47;5072545;28;20470;-74
2021/04/27 11:41:46;;;;;;;4.27;2.40;;;;;;;18.21;38.05;94552.34;5071991;28;20863;-74
2021/04/27 11:44:14;;;;;;;3.50;2.37;;;;;;;18.07;37.66;94546.41;5072396;28;20431;-72
2021/04/27 11:46:58;;;;;;;7.70;2.67;;;;;;;18.75;36.99;94551.75;5072194;28;20446;-74
2021/04/27 11:49:44;;;;;;;7.20;2.53;;;;;;;18.85;36.33;94548.78;5072205;28;20897;-74